Portada
METAR-TAF:

METAR-TAF

Aeropuertos :

Aurillac, Francia

latitud: 44-53N, longitud: 002-25E, altitud: 639 m

Observación

El informe se hizo hace 29 minutos, a las 16:30 UTC
Viento 3 kt del sureste, variando entre este y suroeste
Temperatura 27°C
Humedad 37%
Presión 1019 hPa
Visibilidad 10 km o más
sin nubes por debajo de 1500 m y sin presencia de cumulonimbus.

METAR: LFLW 151630Z AUTO 13003KT 090V230 CAVOK 27/11 Q1019 NOSIG

Hora: 18:59 (16:59 UTC)

Pronóstico

El informe se hizo hace 2 horas y 59 minutos, a las 14:00 UTC
Pronóstico válido del 15 a las 15 UTC al 15 a las 24 UTC
Viento 3 kt con dirección variable
Visibilidad 10 km o más
sin nubes por debajo de 1500 m y sin presencia de cumulonimbus.
Evolucionando progresivamente
del 15 a las 22 UTC al 15 a las 24 UTC
Viento 5 kt del sur-sureste

TAF: LFLW 151400Z 1515/1524 VRB03KT CAVOK BECMG 1522/1524 15005KT

Observaciones y pronósticos meteorológicos de más de 4000 aeropuertos (mensajes METAR y TAF).

Los puntos amarillos y rojos representan las estaciones disponibles.

Ponga el ratón en el punto deseado para ver el nombre de la estación.

Haga clic para ver las observaciones y los pronósticos meteorológicos.

Para cambiar el mapa : haga clic en los botones verdes con una cruz de color negro para hacer un zoom, en el botón verde con un guión para alejar o en las flechas verdes para mapas adyacentes.


METAR-TAF: